Time;durP1;ratioP1;P1;durP2;ratioP2;P2;SDS_P1;SDS_P2;PMS_P1;PMS_P2;Temp;Humidity;BMP_temperature;BMP_pressure;BME280_temperature;BME280_humidity;BME280_pressure;Samples;Min_cycle;Max_cycle;Signal;HPM_P1;HPM_P2
2022/11/01 00:00:01;;;;;;;3.67;1.77;;;;;;;;;;4961489;28;20040;-82
2022/11/01 00:02:27;;;;;;;4.32;1.98;;;;;;;;;;4961822;28;20365;-82
2022/11/01 00:04:52;;;;;;;4.28;2.47;;;;;;;;;;4993244;28;20070;-81
2022/11/01 00:07:17;;;;;;;4.25;2.08;;;;;;;;;;4961345;28;20412;-82
2022/11/01 00:09:43;;;;;;;5.97;2.85;;;;;;;;;;4966999;28;20388;-82
2022/11/01 00:12:08;;;;;;;3.30;1.90;;;;;;;;;;4981072;28;20061;-82
2022/11/01 00:14:34;;;;;;;5.18;2.42;;;;;;;;;;4980955;28;20453;-81
2022/11/01 00:16:59;;;;;;;3.08;2.25;;;;;;;;;;4980571;28;20372;-82
2022/11/01 00:19:25;;;;;;;4.05;2.10;;;;;;;;;;4964835;28;20395;-82
2022/11/01 00:21:50;;;;;;;4.13;2.35;;;;;;;;;;4981025;28;20025;-82
2022/11/01 00:24:16;;;;;;;5.90;2.25;;;;;;;;;;4980383;28;20076;-82
2022/11/01 00:26:41;;;;;;;3.08;1.80;;;;;;;;;;4964626;28;20462;-82
2022/11/01 00:29:07;;;;;;;3.47;2.30;;;;;;;;;;4964356;28;20420;-82
2022/11/01 00:31:32;;;;;;;4.72;2.10;;;;;;;;;;4980803;28;20083;-82
2022/11/01 00:34:00;;;;;;;4.75;1.98;;;;;;;;;;4980455;28;20103;-82
2022/11/01 00:36:25;;;;;;;5.03;2.15;;;;;;;;;;4980984;28;20034;-82
2022/11/01 00:38:51;;;;;;;4.10;2.00;;;;;;;;;;4996870;28;20037;-83
2022/11/01 00:41:18;;;;;;;4.03;2.15;;;;;;;;;;4983827;28;20092;-82
2022/11/01 00:43:43;;;;;;;4.93;2.33;;;;;;;;;;5000255;28;20047;-82
2022/11/01 00:46:09;;;;;;;4.05;2.42;;;;;;;;;;4983883;28;20047;-82
2022/11/01 00:48:34;;;;;;;3.22;1.90;;;;;;;;;;4967804;28;20396;-82
2022/11/01 00:51:00;;;;;;;3.10;2.10;;;;;;;;;;4983701;28;20029;-82
2022/11/01 00:53:25;;;;;;;4.25;1.80;;;;;;;;;;4983774;28;20372;-82
2022/11/01 00:55:51;;;;;;;5.43;2.45;;;;;;;;;;4983468;28;20729;-82
2022/11/01 00:58:16;;;;;;;3.97;1.60;;;;;;;;;;4983468;28;20046;-83
2022/11/01 01:00:42;;;;;;;4.47;2.15;;;;;;;;;;4967319;28;20472;-82
2022/11/01 01:03:08;;;;;;;4.22;2.33;;;;;;;;;;4979762;28;20109;-83
2022/11/01 01:05:34;;;;;;;4.55;2.40;;;;;;;;;;4964081;28;20057;-82
2022/11/01 01:07:59;;;;;;;3.50;1.85;;;;;;;;;;4979961;28;20404;-82
2022/11/01 01:10:25;;;;;;;4.03;2.10;;;;;;;;;;4974865;28;20140;-82
2022/11/01 01:12:50;;;;;;;4.22;1.80;;;;;;;;;;4984011;28;20391;-82
2022/11/01 01:15:16;;;;;;;5.03;1.90;;;;;;;;;;4982857;28;20034;-82
2022/11/01 01:17:41;;;;;;;3.40;1.77;;;;;;;;;;4983131;28;20369;-82
2022/11/01 01:20:07;;;;;;;3.78;1.85;;;;;;;;;;4967234;28;20075;-82
2022/11/01 01:22:33;;;;;;;4.25;2.08;;;;;;;;;;4967125;28;20463;-82
2022/11/01 01:24:58;;;;;;;2.83;1.83;;;;;;;;;;4998977;28;20107;-82
2022/11/01 01:27:24;;;;;;;3.45;1.60;;;;;;;;;;4982807;28;20891;-82
2022/11/01 01:29:50;;;;;;;3.42;1.98;;;;;;;;;;4982903;28;20037;-82
2022/11/01 01:32:17;;;;;;;6.03;1.98;;;;;;;;;;4982868;28;20091;-82
2022/11/01 01:34:42;;;;;;;3.58;1.77;;;;;;;;;;4966801;28;20056;-81
2022/11/01 01:37:08;;;;;;;3.83;2.00;;;;;;;;;;4998851;28;20045;-82
2022/11/01 01:39:34;;;;;;;3.47;1.65;;;;;;;;;;4966902;28;20044;-82
2022/11/01 01:42:01;;;;;;;4.25;1.83;;;;;;;;;;4983021;28;20040;-82
2022/11/01 01:44:45;;;;;;;4.80;2.40;;;;;;;;;;4966933;28;20037;-82
2022/11/01 01:47:16;;;;;;;4.93;1.63;;;;;;;;;;4998967;28;20075;-81
2022/11/01 01:49:41;;;;;;;2.65;1.52;;;;;;;;;;4967147;28;20149;-82
2022/11/01 01:52:08;;;;;;;4.35;2.38;;;;;;;;;;4998722;28;20033;-84
2022/11/01 01:54:33;;;;;;;3.42;1.73;;;;;;;;;;4982655;28;20043;-82
2022/11/01 01:56:59;;;;;;;3.72;1.85;;;;;;;;;;4981905;28;20400;-82
2022/11/01 01:59:24;;;;;;;3.40;1.58;;;;;;;;;;4982927;28;20416;-82
2022/11/01 02:01:50;;;;;;;4.53;1.67;;;;;;;;;;4979593;28;20033;-82
2022/11/01 02:04:24;;;;;;;3.42;1.50;;;;;;;;;;4962827;28;20439;-83
2022/11/01 02:06:50;;;;;;;3.13;1.33;;;;;;;;;;4978879;28;20029;-82
2022/11/01 02:09:15;;;;;;;2.92;1.65;;;;;;;;;;4964732;28;20395;-82
2022/11/01 02:11:41;;;;;;;3.42;1.52;;;;;;;;;;4966516;28;20051;-83
2022/11/01 02:14:06;;;;;;;4.20;1.73;;;;;;;;;;4998618;28;20383;-83
2022/11/01 02:16:34;;;;;;;2.72;1.38;;;;;;;;;;4982069;28;20423;-82
2022/11/01 02:19:14;;;;;;;4.63;1.90;;;;;;;;;;5015096;28;20128;-82
2022/11/01 02:21:42;;;;;;;3.28;1.70;;;;;;;;;;4982470;28;20555;-82
2022/11/01 02:24:12;;;;;;;3.92;1.33;;;;;;;;;;4981776;28;20066;-82
2022/11/01 02:27:13;;;;;;;3.00;1.65;;;;;;;;;;4982046;28;20032;-81
2022/11/01 02:30:00;;;;;;;4.82;1.80;;;;;;;;;;4996624;28;20052;-81
2022/11/01 02:32:45;;;;;;;4.57;1.63;;;;;;;;;;4981738;28;20033;-82
2022/11/01 02:35:20;;;;;;;3.42;1.98;;;;;;;;;;5014858;28;20060;-82
2022/11/01 02:37:45;;;;;;;3.65;1.95;;;;;;;;;;5000176;28;20534;-82
2022/11/01 02:40:18;;;;;;;4.40;1.60;;;;;;;;;;5032716;28;20117;-82
2022/11/01 02:42:45;;;;;;;3.38;1.92;;;;;;;;;;5029591;28;20103;-81
2022/11/01 02:45:26;;;;;;;4.88;1.83;;;;;;;;;;4983791;28;20119;-81
2022/11/01 02:47:53;;;;;;;3.78;2.13;;;;;;;;;;5018849;28;20483;-82
2022/11/01 02:50:18;;;;;;;4.00;1.77;;;;;;;;;;5014561;28;20601;-81
2022/11/01 02:52:44;;;;;;;4.05;1.92;;;;;;;;;;5017137;28;20044;-82
2022/11/01 02:55:28;;;;;;;3.60;1.55;;;;;;;;;;5000736;28;20399;-81
2022/11/01 02:57:58;;;;;;;4.07;1.60;;;;;;;;;;5018346;28;20029;-82
2022/11/01 03:00:24;;;;;;;5.20;1.83;;;;;;;;;;5000819;28;20077;-82
2022/11/01 03:03:01;;;;;;;3.50;1.30;;;;;;;;;;5019089;28;20025;-82
2022/11/01 03:05:32;;;;;;;6.30;2.00;;;;;;;;;;4997451;28;20483;-82
2022/11/01 03:08:00;;;;;;;5.82;1.92;;;;;;;;;;4997810;28;20044;-81
2022/11/01 03:10:51;;;;;;;3.45;1.45;;;;;;;;;;4981699;28;20481;-82
2022/11/01 03:13:43;;;;;;;2.80;1.40;;;;;;;;;;4983804;28;20026;-82
2022/11/01 03:16:18;;;;;;;3.15;1.42;;;;;;;;;;4980664;28;20050;-82
2022/11/01 03:19:21;;;;;;;3.65;1.35;;;;;;;;;;4966261;28;20033;-81
2022/11/01 03:21:57;;;;;;;3.38;1.85;;;;;;;;;;4997289;28;20021;-81
2022/11/01 03:24:32;;;;;;;3.00;1.58;;;;;;;;;;4997178;28;20057;-81
2022/11/01 03:27:09;;;;;;;3.90;1.40;;;;;;;;;;4981345;28;20030;-82
2022/11/01 03:29:35;;;;;;;3.33;1.67;;;;;;;;;;4979370;28;20100;-82
2022/11/01 03:32:02;;;;;;;3.13;1.48;;;;;;;;;;4978107;28;20439;-82
2022/11/01 03:34:27;;;;;;;2.53;1.73;;;;;;;;;;4993945;28;20064;-81
2022/11/01 03:36:56;;;;;;;3.28;1.38;;;;;;;;;;4961687;28;20046;-81
2022/11/01 03:39:27;;;;;;;3.70;1.45;;;;;;;;;;4962141;28;20050;-81
2022/11/01 03:41:55;;;;;;;4.05;1.65;;;;;;;;;;4978192;28;20049;-81
2022/11/01 03:44:21;;;;;;;4.40;1.35;;;;;;;;;;4961765;28;20026;-82
2022/11/01 03:46:46;;;;;;;3.63;1.90;;;;;;;;;;4961954;28;20065;-81
2022/11/01 03:49:16;;;;;;;3.88;1.52;;;;;;;;;;4961614;28;20104;-82
2022/11/01 03:51:42;;;;;;;2.25;1.08;;;;;;;;;;4977962;28;20388;-81
2022/11/01 03:54:09;;;;;;;3.45;1.45;;;;;;;;;;4961697;28;20091;-82
2022/11/01 03:56:39;;;;;;;3.17;1.50;;;;;;;;;;4962079;28;20044;-82
2022/11/01 03:59:05;;;;;;;4.85;2.22;;;;;;;;;;4976815;28;20036;-81
2022/11/01 04:01:30;;;;;;;3.20;1.80;;;;;;;;;;4961789;28;20042;-81
2022/11/01 04:03:56;;;;;;;3.47;1.60;;;;;;;;;;4961114;28;20030;-82
2022/11/01 04:06:21;;;;;;;4.20;1.20;;;;;;;;;;4961514;28;20034;-82
2022/11/01 04:08:47;;;;;;;2.22;1.30;;;;;;;;;;4960880;28;20049;-82
2022/11/01 04:11:12;;;;;;;5.63;1.60;;;;;;;;;;4978627;28;20075;-82
2022/11/01 04:13:37;;;;;;;1.85;1.40;;;;;;;;;;4979997;28;20491;-81
2022/11/01 04:20:31;;;;;;;3.30;1.30;;;;;;;;;;5001460;28;20037;-82
2022/11/01 04:21:38;;;;;;;2.58;1.35;;;;;;;;;;4989799;28;20056;-81
2022/11/01 04:24:04;;;;;;;2.47;1.30;;;;;;;;;;5000276;28;20041;-81
2022/11/01 04:26:29;;;;;;;5.55;1.30;;;;;;;;;;4984057;28;20048;-81
2022/11/01 04:28:57;;;;;;;4.00;1.65;;;;;;;;;;5000243;28;20519;-82
2022/11/01 04:31:30;;;;;;;3.20;1.13;;;;;;;;;;4969160;28;20037;-82
2022/11/01 04:33:56;;;;;;;4.28;1.60;;;;;;;;;;5000403;28;20046;-82
2022/11/01 04:36:21;;;;;;;3.13;1.25;;;;;;;;;;5000456;28;20036;-82
2022/11/01 04:38:49;;;;;;;3.42;1.17;;;;;;;;;;5000414;28;20025;-81
2022/11/01 04:41:16;;;;;;;2.53;1.25;;;;;;;;;;4983927;28;20033;-82
2022/11/01 04:43:41;;;;;;;2.92;1.40;;;;;;;;;;4983799;28;20545;-81
2022/11/01 04:46:07;;;;;;;2.65;1.40;;;;;;;;;;4983957;28;20029;-82
2022/11/01 04:48:32;;;;;;;2.28;1.27;;;;;;;;;;5016675;28;20033;-82
2022/11/01 04:50:59;;;;;;;2.58;1.55;;;;;;;;;;5000065;28;20045;-82
2022/11/01 04:53:24;;;;;;;3.00;1.10;;;;;;;;;;4984055;28;20041;-81
2022/11/01 04:55:50;;;;;;;4.30;1.33;;;;;;;;;;4999810;28;20443;-82
2022/11/01 04:58:15;;;;;;;1.83;1.10;;;;;;;;;;4967532;28;20124;-82
2022/11/01 05:00:42;;;;;;;1.52;0.70;;;;;;;;;;4999659;28;20029;-81
2022/11/01 05:03:08;;;;;;;2.75;1.25;;;;;;;;;;4984139;28;20045;-82
2022/11/01 05:05:34;;;;;;;4.05;1.08;;;;;;;;;;4999232;28;20033;-82
2022/11/01 05:08:03;;;;;;;2.70;1.17;;;;;;;;;;5000188;28;20044;-82
2022/11/01 05:10:29;;;;;;;2.05;0.93;;;;;;;;;;4999129;28;20035;-82
2022/11/01 05:12:55;;;;;;;3.22;1.00;;;;;;;;;;4967845;28;20037;-82
2022/11/01 05:15:20;;;;;;;1.88;0.88;;;;;;;;;;4983605;28;20101;-82
2022/11/01 05:17:45;;;;;;;2.13;0.98;;;;;;;;;;5000025;28;20073;-82
2022/11/01 05:20:11;;;;;;;1.65;0.90;;;;;;;;;;4999418;28;20041;-82
2022/11/01 05:22:36;;;;;;;3.15;1.30;;;;;;;;;;4983385;28;20377;-82
2022/11/01 05:25:02;;;;;;;2.00;1.00;;;;;;;;;;4998589;28;20037;-82
2022/11/01 05:27:27;;;;;;;2.17;0.85;;;;;;;;;;4983278;28;20026;-82
2022/11/01 05:29:53;;;;;;;3.50;0.98;;;;;;;;;;4999302;28;20454;-82
2022/11/01 05:32:18;;;;;;;1.70;0.90;;;;;;;;;;4999568;28;20045;-82
2022/11/01 05:34:45;;;;;;;1.90;1.00;;;;;;;;;;4982889;28;20029;-82
2022/11/01 05:37:11;;;;;;;1.67;0.88;;;;;;;;;;4999646;28;20125;-82
2022/11/01 05:39:36;;;;;;;1.58;0.70;;;;;;;;;;4966928;28;20387;-82
2022/11/01 05:42:01;;;;;;;3.17;0.82;;;;;;;;;;4999074;28;20041;-82
2022/11/01 05:44:27;;;;;;;1.80;0.88;;;;;;;;;;4982925;28;20037;-82
2022/11/01 05:46:52;;;;;;;2.40;0.90;;;;;;;;;;4999203;28;20047;-82
2022/11/01 05:49:18;;;;;;;2.40;0.85;;;;;;;;;;4966716;28;20029;-82
2022/11/01 05:51:43;;;;;;;1.55;0.60;;;;;;;;;;4982803;28;20114;-82
2022/11/01 05:54:08;;;;;;;3.33;1.20;;;;;;;;;;4982413;28;20041;-81
2022/11/01 05:56:34;;;;;;;1.52;0.80;;;;;;;;;;4982795;28;20120;-82
2022/11/01 05:58:59;;;;;;;2.53;0.82;;;;;;;;;;4982269;28;20037;-82
2022/11/01 06:01:25;;;;;;;2.00;0.80;;;;;;;;;;4982626;28;20036;-82
2022/11/01 06:03:50;;;;;;;1.73;0.82;;;;;;;;;;4982589;28;20037;-82
2022/11/01 06:06:16;;;;;;;1.98;0.60;;;;;;;;;;4982473;28;20404;-82
2022/11/01 06:08:41;;;;;;;2.40;0.90;;;;;;;;;;4998732;28;20033;-83
2022/11/01 06:11:07;;;;;;;3.65;0.90;;;;;;;;;;4982092;28;20476;-82
2022/11/01 06:13:32;;;;;;;1.17;0.70;;;;;;;;;;4982672;28;20026;-82
2022/11/01 06:15:59;;;;;;;2.17;0.55;;;;;;;;;;4982429;28;20112;-82
2022/11/01 06:18:25;;;;;;;2.03;0.70;;;;;;;;;;4966590;28;20484;-81
2022/11/01 06:20:50;;;;;;;2.33;0.82;;;;;;;;;;4998827;28;20064;-82
2022/11/01 06:23:16;;;;;;;1.40;0.80;;;;;;;;;;4981736;28;20387;-82
2022/11/01 06:25:41;;;;;;;2.72;0.77;;;;;;;;;;4981951;28;20021;-82
2022/11/01 06:28:07;;;;;;;1.88;1.05;;;;;;;;;;4982053;28;20108;-81
2022/11/01 06:30:32;;;;;;;5.32;0.95;;;;;;;;;;4979292;28;20065;-81
2022/11/01 06:32:59;;;;;;;2.72;0.73;;;;;;;;;;4962583;28;20045;-82
2022/11/01 06:35:26;;;;;;;4.00;0.80;;;;;;;;;;4978689;28;20056;-82
2022/11/01 06:38:00;;;;;;;3.67;0.90;;;;;;;;;;4978616;28;20060;-82
2022/11/01 06:40:25;;;;;;;1.90;0.60;;;;;;;;;;4963905;28;20045;-82
2022/11/01 06:42:51;;;;;;;4.03;0.60;;;;;;;;;;4994907;28;20049;-82
2022/11/01 06:45:16;;;;;;;2.38;0.50;;;;;;;;;;4962687;28;20392;-82
2022/11/01 06:47:45;;;;;;;2.58;1.05;;;;;;;;;;4962749;28;20030;-82
2022/11/01 06:50:11;;;;;;;1.40;0.65;;;;;;;;;;4962547;28;20381;-83
2022/11/01 06:52:36;;;;;;;1.73;0.60;;;;;;;;;;4962054;28;20048;-80
2022/11/01 06:55:02;;;;;;;4.35;0.90;;;;;;;;;;4962523;28;20385;-80
2022/11/01 06:57:28;;;;;;;3.58;0.70;;;;;;;;;;4994449;28;20464;-81
2022/11/01 06:59:53;;;;;;;3.03;0.63;;;;;;;;;;4962487;28;20042;-82
2022/11/01 07:02:18;;;;;;;4.35;0.95;;;;;;;;;;4963190;28;20444;-81
2022/11/01 07:04:44;;;;;;;5.22;1.20;;;;;;;;;;4978151;28;20121;-80
2022/11/01 07:07:11;;;;;;;4.35;1.00;;;;;;;;;;4961953;28;20504;-81
2022/11/01 07:09:36;;;;;;;9.40;1.17;;;;;;;;;;4996776;28;20107;-82
2022/11/01 07:12:01;;;;;;;7.05;0.93;;;;;;;;;;4965677;28;20025;-81
2022/11/01 07:14:27;;;;;;;6.38;0.93;;;;;;;;;;4981336;28;20411;-82
2022/11/01 07:16:52;;;;;;;5.25;0.90;;;;;;;;;;4965536;28;20029;-79
2022/11/01 07:19:18;;;;;;;6.32;1.00;;;;;;;;;;4981271;28;20037;-80
2022/11/01 07:21:43;;;;;;;5.38;0.82;;;;;;;;;;4977723;28;20750;-81
2022/11/01 07:24:09;;;;;;;4.35;0.77;;;;;;;;;;4993734;28;20396;-81
2022/11/01 07:26:34;;;;;;;3.92;0.90;;;;;;;;;;4977933;28;20485;-81
2022/11/01 07:29:00;;;;;;;4.97;1.33;;;;;;;;;;4980974;28;20029;-81
2022/11/01 07:31:25;;;;;;;3.97;1.35;;;;;;;;;;4981502;28;20148;-82
2022/11/01 07:33:50;;;;;;;3.42;0.75;;;;;;;;;;4997120;28;20112;-81
2022/11/01 07:36:17;;;;;;;3.70;0.65;;;;;;;;;;4997459;28;20041;-81
2022/11/01 07:38:42;;;;;;;6.32;1.00;;;;;;;;;;4981575;28;20033;-81
2022/11/01 07:41:08;;;;;;;5.70;1.52;;;;;;;;;;4997694;28;20030;-82
2022/11/01 07:43:34;;;;;;;5.80;1.33;;;;;;;;;;4980969;28;20191;-82
2022/11/01 07:46:02;;;;;;;4.60;1.27;;;;;;;;;;4997815;28;20461;-81
2022/11/01 07:48:28;;;;;;;4.40;0.93;;;;;;;;;;4999563;28;20032;-81
2022/11/01 07:50:55;;;;;;;5.53;1.20;;;;;;;;;;5001057;28;20045;-82
2022/11/01 07:53:21;;;;;;;5.88;1.30;;;;;;;;;;4990568;28;20491;-81
2022/11/01 07:55:46;;;;;;;6.65;1.48;;;;;;;;;;4984425;28;20045;-81
2022/11/01 07:58:12;;;;;;;3.92;0.70;;;;;;;;;;4981403;28;20533;-81
2022/11/01 08:00:38;;;;;;;5.53;1.33;;;;;;;;;;4998255;28;20037;-81
2022/11/01 08:03:17;;;;;;;4.45;1.65;;;;;;;;;;4964284;28;20045;-81
2022/11/01 08:05:42;;;;;;;2.72;0.70;;;;;;;;;;4979268;28;20030;-82
2022/11/01 08:08:08;;;;;;;7.07;1.38;;;;;;;;;;4963798;28;20038;-82
2022/11/01 08:10:33;;;;;;;7.50;1.58;;;;;;;;;;4975065;28;20110;-81
2022/11/01 08:13:15;;;;;;;7.35;1.52;;;;;;;;;;4999075;28;20041;-82
2022/11/01 08:15:41;;;;;;;4.18;1.30;;;;;;;;;;4983523;28;20099;-81
2022/11/01 08:18:06;;;;;;;8.70;1.55;;;;;;;;;;4983416;28;20037;-82
2022/11/01 08:20:32;;;;;;;6.78;1.50;;;;;;;;;;4984368;28;20037;-82
2022/11/01 08:22:58;;;;;;;5.43;1.00;;;;;;;;;;4984384;28;20026;-81
2022/11/01 08:25:23;;;;;;;5.30;1.10;;;;;;;;;;5001275;28;20029;-82
2022/11/01 08:27:48;;;;;;;8.88;1.35;;;;;;;;;;5017197;28;20036;-82
2022/11/01 08:30:14;;;;;;;6.82;1.92;;;;;;;;;;4984314;28;20034;-83
2022/11/01 08:32:40;;;;;;;7.43;1.38;;;;;;;;;;4994326;28;20083;-83
2022/11/01 08:35:06;;;;;;;4.40;1.00;;;;;;;;;;5003227;28;20107;-84
2022/11/01 08:37:31;;;;;;;8.02;1.33;;;;;;;;;;5006853;28;20037;-84
2022/11/01 08:39:56;;;;;;;7.18;2.22;;;;;;;;;;5003508;28;20108;-84
2022/11/01 08:42:22;;;;;;;6.25;1.45;;;;;;;;;;5017161;28;20498;-83
2022/11/01 08:44:47;;;;;;;5.53;0.98;;;;;;;;;;5008011;28;20534;-84
2022/11/01 08:47:13;;;;;;;5.30;0.93;;;;;;;;;;4979221;28;20057;-83
2022/11/01 08:49:38;;;;;;;7.15;1.00;;;;;;;;;;4964332;28;20116;-83
2022/11/01 08:52:04;;;;;;;10.18;1.08;;;;;;;;;;4979612;28;20030;-84
2022/11/01 08:54:31;;;;;;;10.18;1.48;;;;;;;;;;4990281;28;20038;-83
2022/11/01 08:56:56;;;;;;;12.05;1.30;;;;;;;;;;4982919;28;20048;-83
2022/11/01 08:59:22;;;;;;;4.32;1.10;;;;;;;;;;4983375;28;20026;-83
2022/11/01 09:01:49;;;;;;;6.40;1.70;;;;;;;;;;4984860;28;20056;-83
2022/11/01 09:04:14;;;;;;;4.90;0.90;;;;;;;;;;4996708;28;20056;-83
2022/11/01 09:06:40;;;;;;;7.45;1.00;;;;;;;;;;4996705;28;20488;-82
2022/11/01 09:09:05;;;;;;;9.70;1.55;;;;;;;;;;4980508;28;20026;-82
2022/11/01 09:11:31;;;;;;;6.82;1.10;;;;;;;;;;4967561;28;20037;-82
2022/11/01 09:14:00;;;;;;;5.90;1.17;;;;;;;;;;4983454;28;20037;-81
2022/11/01 09:16:25;;;;;;;11.13;1.23;;;;;;;;;;4999893;28;20506;-81
2022/11/01 09:18:51;;;;;;;6.32;1.33;;;;;;;;;;4967379;28;20025;-81
2022/11/01 09:21:17;;;;;;;8.70;1.63;;;;;;;;;;4983628;28;20120;-81
2022/11/01 09:23:42;;;;;;;5.15;1.00;;;;;;;;;;4999545;28;20510;-81
2022/11/01 09:26:09;;;;;;;8.10;1.75;;;;;;;;;;4966960;28;20148;-83
2022/11/01 09:28:34;;;;;;;8.18;1.13;;;;;;;;;;4999539;28;20552;-82
2022/11/01 09:31:02;;;;;;;8.15;1.02;;;;;;;;;;4979496;28;20040;-82
2022/11/01 09:33:28;;;;;;;5.28;1.38;;;;;;;;;;4979834;28;20034;-82
2022/11/01 09:35:54;;;;;;;10.80;3.50;;;;;;;;;;4979744;28;20037;-83
2022/11/01 09:38:19;;;;;;;10.20;2.67;;;;;;;;;;4996081;28;20121;-83
2022/11/01 09:40:46;;;;;;;16.33;4.57;;;;;;;;;;4995718;28;20048;-83
2022/11/01 09:43:21;;;;;;;14.13;3.90;;;;;;;;;;4963502;28;20128;-82
2022/11/01 09:45:47;;;;;;;11.77;3.72;;;;;;;;;;4981768;28;20032;-82
2022/11/01 09:48:12;;;;;;;9.88;3.20;;;;;;;;;;5015608;28;20052;-82
2022/11/01 09:50:38;;;;;;;6.97;3.25;;;;;;;;;;5015393;28;20041;-82
2022/11/01 09:53:06;;;;;;;8.57;3.15;;;;;;;;;;4982586;28;20060;-82
2022/11/01 09:55:54;;;;;;;10.70;3.17;;;;;;;;;;4999056;28;20124;-82
2022/11/01 09:58:45;;;;;;;8.05;2.28;;;;;;;;;;4998455;28;20431;-82
2022/11/01 10:01:37;;;;;;;6.63;2.17;;;;;;;;;;5009679;28;20048;-81
2022/11/01 10:04:53;;;;;;;11.52;2.60;;;;;;;;;;5016949;28;20033;-82
2022/11/01 10:07:28;;;;;;;9.68;3.83;;;;;;;;;;4969535;28;20053;-81
2022/11/01 10:10:00;;;;;;;7.82;3.15;;;;;;;;;;4935361;28;20042;-82
2022/11/01 10:12:37;;;;;;;17.20;3.00;;;;;;;;;;4996449;28;20552;-82
2022/11/01 10:15:56;;;;;;;9.73;3.35;;;;;;;;;;4998778;28;20017;-82
2022/11/01 10:18:31;;;;;;;8.90;2.92;;;;;;;;;;4959826;28;20042;-82
2022/11/01 10:21:16;;;;;;;7.10;2.22;;;;;;;;;;4981793;28;20033;-81
2022/11/01 10:23:48;;;;;;;9.35;2.38;;;;;;;;;;5015735;28;20045;-82
2022/11/01 10:26:25;;;;;;;6.90;2.70;;;;;;;;;;5009622;28;20057;-81
2022/11/01 10:29:12;;;;;;;9.82;2.85;;;;;;;;;;5014082;28;20032;-83
2022/11/01 10:31:43;;;;;;;7.80;1.80;;;;;;;;;;5015222;28;20032;-82
2022/11/01 10:34:20;;;;;;;7.53;2.67;;;;;;;;;;5000607;28;20080;-82
2022/11/01 10:36:46;;;;;;;17.80;3.40;;;;;;;;;;5017298;28;20426;-84
2022/11/01 10:39:14;;;;;;;10.30;2.22;;;;;;;;;;5017162;28;20171;-81
2022/11/01 10:41:46;;;;;;;6.45;2.00;;;;;;;;;;5051381;28;20025;-81
2022/11/01 10:44:33;;;;;;;9.77;2.42;;;;;;;;;;5011432;28;20040;-84
2022/11/01 10:47:03;;;;;;;10.05;2.40;;;;;;;;;;5013298;28;20419;-82
2022/11/01 10:49:34;;;;;;;7.93;2.10;;;;;;;;;;5001750;28;20032;-83
2022/11/01 10:52:14;;;;;;;7.07;2.38;;;;;;;;;;5017057;28;20029;-84
2022/11/01 10:54:40;;;;;;;8.38;1.90;;;;;;;;;;4999901;28;20036;-82
2022/11/01 10:57:34;;;;;;;6.03;1.75;;;;;;;;;;5016097;28;20029;-82
2022/11/01 11:00:04;;;;;;;7.65;2.40;;;;;;;;;;5006265;28;20094;-82
2022/11/01 11:02:41;;;;;;;11.18;2.15;;;;;;;;;;4998846;28;20100;-84
2022/11/01 11:05:12;;;;;;;6.20;1.70;;;;;;;;;;5016436;28;20094;-83
2022/11/01 11:07:39;;;;;;;10.38;2.35;;;;;;;;;;4998783;28;20036;-83
2022/11/01 11:10:20;;;;;;;6.07;2.10;;;;;;;;;;5009514;28;20380;-82
2022/11/01 11:12:46;;;;;;;6.55;2.03;;;;;;;;;;5000588;28;20119;-82
2022/11/01 11:15:18;;;;;;;4.22;1.60;;;;;;;;;;5017341;28;20104;-83
2022/11/01 11:17:44;;;;;;;10.80;2.40;;;;;;;;;;5017308;28;20065;-83
2022/11/01 11:20:10;;;;;;;25.83;11.20;;;;;;;;;;5017475;28;20086;-84
2022/11/01 11:22:38;;;;;;;28.70;11.25;;;;;;;;;;4984310;28;20029;-82
2022/11/01 11:25:04;;;;;;;16.27;6.82;;;;;;;;;;5001072;28;20029;-84
2022/11/01 11:27:30;;;;;;;12.82;5.47;;;;;;;;;;5000246;28;20566;-84
2022/11/01 11:30:06;;;;;;;13.75;4.45;;;;;;;;;;4990538;28;20391;-82
2022/11/01 11:32:37;;;;;;;10.45;3.40;;;;;;;;;;4981682;28;20483;-85
2022/11/01 11:35:23;;;;;;;15.40;4.85;;;;;;;;;;4982051;28;20029;-84
2022/11/01 11:38:04;;;;;;;117.00;66.88;;;;;;;;;;4997132;28;20091;-87
2022/11/01 11:40:41;;;;;;;314.40;216.05;;;;;;;;;;4982183;28;20041;-86
2022/11/01 11:43:30;;;;;;;566.97;413.63;;;;;;;;;;5015090;28;20068;-90
2022/11/01 11:46:13;;;;;;;395.73;273.23;;;;;;;;;;4984374;28;20390;-87
2022/11/01 11:48:51;;;;;;;312.45;205.70;;;;;;;;;;5001600;28;20483;-88
2022/11/01 11:51:19;;;;;;;99.30;62.05;;;;;;;;;;5002623;28;20029;-88
2022/11/01 11:54:20;;;;;;;150.68;99.03;;;;;;;;;;5021578;28;20064;-89
2022/11/01 11:56:51;;;;;;;123.93;82.40;;;;;;;;;;5015103;28;20014;-89
2022/11/01 11:59:43;;;;;;;69.82;42.45;;;;;;;;;;4988577;28;20044;-89
2022/11/01 12:02:23;;;;;;;55.03;33.35;;;;;;;;;;5000590;28;20040;-89
2022/11/01 12:05:00;;;;;;;47.30;31.55;;;;;;;;;;4983737;28;20133;-89
2022/11/01 12:07:38;;;;;;;53.30;30.77;;;;;;;;;;5031637;28;20030;-89
2022/11/01 12:10:06;;;;;;;53.75;29.63;;;;;;;;;;5026439;28;20415;-90
2022/11/01 12:12:34;;;;;;;45.85;26.40;;;;;;;;;;4980738;28;20108;-90
2022/11/01 12:15:00;;;;;;;48.90;26.45;;;;;;;;;;4982242;28;20036;-90
2022/11/01 12:17:35;;;;;;;41.03;24.45;;;;;;;;;;4981882;28;20080;-89
2022/11/01 12:20:15;;;;;;;38.10;22.20;;;;;;;;;;4982177;28;20029;-83
2022/11/01 12:23:02;;;;;;;34.28;19.90;;;;;;;;;;4997845;28;20037;-88
2022/11/01 12:25:28;;;;;;;38.80;20.33;;;;;;;;;;5000556;28;20033;-90
2022/11/01 12:27:56;;;;;;;32.70;18.30;;;;;;;;;;5010041;28;20037;-86
2022/11/01 12:30:23;;;;;;;27.08;16.90;;;;;;;;;;5001246;28;20029;-86
2022/11/01 12:32:52;;;;;;;28.77;16.67;;;;;;;;;;4984879;28;20032;-87
2022/11/01 12:35:39;;;;;;;28.77;15.13;;;;;;;;;;4987107;28;20079;-85
2022/11/01 12:38:36;;;;;;;34.15;17.75;;;;;;;;;;4989010;28;20040;-89
2022/11/01 12:41:25;;;;;;;30.08;17.38;;;;;;;;;;5021931;28;20025;-90
2022/11/01 12:44:12;;;;;;;25.85;15.68;;;;;;;;;;5014828;28;20154;-91
2022/11/01 12:46:59;;;;;;;25.10;14.38;;;;;;;;;;5005247;28;20041;-93
2022/11/01 12:49:48;;;;;;;24.60;14.30;;;;;;;;;;5021245;28;20368;-90
2022/11/01 12:52:36;;;;;;;27.05;13.52;;;;;;;;;;4989138;28;20170;-91
2022/11/01 12:55:07;;;;;;;24.38;13.15;;;;;;;;;;5021247;28;20128;-92
2022/11/01 12:57:34;;;;;;;24.30;13.65;;;;;;;;;;5021018;28;20025;-90
2022/11/01 13:00:02;;;;;;;22.90;12.98;;;;;;;;;;4988704;28;20079;-89
2022/11/01 13:02:39;;;;;;;27.85;13.60;;;;;;;;;;4997222;28;20038;-87
2022/11/01 13:05:14;;;;;;;23.27;12.23;;;;;;;;;;4968169;28;20113;-85
2022/11/01 13:07:39;;;;;;;21.33;10.98;;;;;;;;;;4964511;28;20095;-82
2022/11/01 13:10:32;;;;;;;23.33;10.98;;;;;;;;;;4999885;28;20029;-81
2022/11/01 13:13:10;;;;;;;20.42;11.30;;;;;;;;;;4996825;28;20124;-82
2022/11/01 13:15:48;;;;;;;23.70;10.95;;;;;;;;;;4999611;28;20091;-82
2022/11/01 13:18:32;;;;;;;19.77;9.25;;;;;;;;;;4984735;28;20044;-82
2022/11/01 13:21:12;;;;;;;19.02;8.57;;;;;;;;;;4984840;28;20087;-82
2022/11/01 13:23:51;;;;;;;18.67;9.60;;;;;;;;;;4999649;28;20044;-82
2022/11/01 13:26:29;;;;;;;17.63;7.70;;;;;;;;;;4983641;28;20036;-82
2022/11/01 13:29:16;;;;;;;18.10;8.27;;;;;;;;;;4983383;28;20132;-82
2022/11/01 13:32:00;;;;;;;14.07;8.13;;;;;;;;;;4983737;28;20029;-82
2022/11/01 13:34:38;;;;;;;13.82;7.60;;;;;;;;;;4999389;28;20430;-82
2022/11/01 13:37:25;;;;;;;14.30;6.95;;;;;;;;;;4984132;28;20037;-82
2022/11/01 13:40:03;;;;;;;14.48;7.20;;;;;;;;;;5015906;28;20033;-82
2022/11/01 13:42:40;;;;;;;12.95;6.82;;;;;;;;;;5033194;28;20053;-82
2022/11/01 13:45:06;;;;;;;13.48;7.20;;;;;;;;;;4983449;28;20026;-82
2022/11/01 13:47:46;;;;;;;13.32;6.32;;;;;;;;;;5032427;28;20045;-82
2022/11/01 13:50:15;;;;;;;15.63;6.43;;;;;;;;;;4999099;28;20046;-82
2022/11/01 13:53:06;;;;;;;14.35;5.85;;;;;;;;;;4998900;28;20036;-82
2022/11/01 13:55:35;;;;;;;11.38;5.20;;;;;;;;;;4999143;28;20033;-82
2022/11/01 13:58:03;;;;;;;14.23;5.93;;;;;;;;;;4983129;28;20043;-82
2022/11/01 14:00:47;;;;;;;9.13;4.72;;;;;;;;;;4979845;28;20124;-82
2022/11/01 14:03:28;;;;;;;11.07;5.30;;;;;;;;;;4973437;28;20037;-82
2022/11/01 14:06:10;;;;;;;11.63;5.25;;;;;;;;;;4998813;28;20108;-82
2022/11/01 14:08:41;;;;;;;9.82;4.50;;;;;;;;;;5015444;28;20495;-81
2022/11/01 14:11:10;;;;;;;9.05;4.82;;;;;;;;;;4979008;28;20076;-81
2022/11/01 14:13:40;;;;;;;7.68;4.15;;;;;;;;;;4979449;28;20584;-82
2022/11/01 14:16:14;;;;;;;9.02;4.35;;;;;;;;;;4979293;28;20046;-82
2022/11/01 14:19:01;;;;;;;8.60;4.68;;;;;;;;;;4995354;28;20040;-82
2022/11/01 14:21:43;;;;;;;9.07;4.38;;;;;;;;;;4995084;28;20538;-82
2022/11/01 14:24:27;;;;;;;8.63;3.95;;;;;;;;;;4979020;28;20030;-81
2022/11/01 14:27:18;;;;;;;7.72;4.20;;;;;;;;;;4962766;28;20030;-81
2022/11/01 14:29:46;;;;;;;9.13;4.00;;;;;;;;;;4963049;28;20045;-82
2022/11/01 14:32:12;;;;;;;9.82;3.58;;;;;;;;;;4995398;28;20030;-81
2022/11/01 14:34:38;;;;;;;6.85;3.30;;;;;;;;;;4978636;28;20504;-82
2022/11/01 14:37:14;;;;;;;8.55;3.90;;;;;;;;;;4978673;28;20116;-82
2022/11/01 14:39:48;;;;;;;12.00;3.67;;;;;;;;;;4979183;28;20034;-81
2022/11/01 14:42:14;;;;;;;7.70;3.78;;;;;;;;;;4994662;28;20033;-82
2022/11/01 14:44:42;;;;;;;7.35;3.30;;;;;;;;;;4978803;28;20057;-81
2022/11/01 14:47:42;;;;;;;7.53;2.83;;;;;;;;;;4994565;28;20038;-81
2022/11/01 14:50:17;;;;;;;7.45;2.63;;;;;;;;;;4991425;28;20074;-81
2022/11/01 14:52:46;;;;;;;6.63;2.95;;;;;;;;;;4978671;28;20041;-82
2022/11/01 14:55:17;;;;;;;6.10;2.65;;;;;;;;;;4994539;28;20079;-82
2022/11/01 14:57:44;;;;;;;8.13;3.40;;;;;;;;;;4993536;28;20026;-81
2022/11/01 15:00:27;;;;;;;7.05;2.83;;;;;;;;;;4978484;28;20042;-82